createdAt,value
2022-08-10T00:01:53.850Z,1.40
2022-08-10T00:04:23.886Z,1.40
2022-08-10T00:06:55.817Z,1.40
2022-08-10T00:09:24.479Z,1.20
2022-08-10T00:11:52.146Z,1.40
2022-08-10T00:14:19.876Z,1.33
2022-08-10T00:16:48.033Z,1.10
2022-08-10T00:19:18.492Z,1.40
2022-08-10T00:21:47.691Z,1.30
2022-08-10T00:24:15.707Z,1.48
2022-08-10T00:27:51.709Z,1.40
2022-08-10T00:29:31.708Z,1.58
2022-08-10T00:31:59.798Z,1.08
2022-08-10T00:34:29.271Z,1.35
2022-08-10T00:36:57.772Z,1.20
2022-08-10T00:39:26.665Z,1.30
2022-08-10T00:42:01.892Z,1.33
2022-08-10T00:45:01.375Z,1.30
2022-08-10T00:47:36.721Z,1.27
2022-08-10T00:50:07.131Z,1.13
2022-08-10T00:52:36.712Z,1.40
2022-08-10T00:55:06.610Z,1.30
2022-08-10T00:57:35.821Z,1.38
2022-08-10T01:00:06.650Z,1.27
2022-08-10T01:02:34.813Z,1.13
2022-08-10T01:05:10.262Z,1.27
2022-08-10T01:07:59.687Z,1.58
2022-08-10T01:11:07.205Z,1.38
2022-08-10T01:14:38.665Z,1.25
2022-08-10T01:17:50.421Z,1.58
2022-08-10T01:21:15.202Z,1.50
2022-08-10T01:24:31.256Z,1.45
2022-08-10T01:27:54.600Z,1.40
2022-08-10T01:30:25.005Z,1.38
2022-08-10T01:33:06.060Z,1.55
2022-08-10T01:35:47.857Z,1.60
2022-08-10T01:38:24.143Z,1.38
2022-08-10T01:41:05.031Z,1.58
2022-08-10T01:43:40.486Z,1.50
2022-08-10T01:46:11.657Z,1.38
2022-08-10T01:48:52.349Z,1.23
2022-08-10T01:51:28.150Z,1.20
2022-08-10T01:54:06.265Z,1.30
2022-08-10T01:56:40.356Z,1.50
2022-08-10T01:59:42.288Z,1.20
2022-08-10T02:02:23.956Z,1.75
2022-08-10T02:04:53.850Z,1.55
2022-08-10T02:07:25.765Z,1.50
2022-08-10T02:09:55.896Z,1.58
2022-08-10T02:12:29.490Z,1.58
2022-08-10T02:15:03.801Z,1.48
2022-08-10T02:17:57.545Z,1.65
2022-08-10T02:20:47.613Z,1.50
2022-08-10T02:23:29.917Z,1.58
2022-08-10T02:26:01.242Z,1.40
2022-08-10T02:28:32.695Z,1.33
2022-08-10T02:31:23.532Z,1.58
2022-08-10T02:33:57.163Z,1.65
2022-08-10T02:36:31.579Z,1.40
2022-08-10T02:39:07.720Z,1.75
2022-08-10T02:45:27.429Z,1.40
2022-08-10T02:45:53.462Z,1.50
2022-08-10T02:48:27.903Z,1.23
2022-08-10T02:51:02.657Z,1.40
2022-08-10T02:53:55.575Z,1.88
2022-08-10T02:56:34.341Z,1.50
2022-08-10T02:59:17.455Z,1.40
2022-08-10T03:01:49.851Z,1.70
2022-08-10T03:04:21.056Z,1.65
2022-08-10T03:07:13.916Z,1.60
2022-08-10T03:09:43.682Z,2.10
2022-08-10T03:12:35.036Z,1.52
2022-08-10T03:15:03.822Z,1.60
2022-08-10T03:17:33.598Z,1.63
2022-08-10T03:20:35.674Z,1.70
2022-08-10T03:22:52.414Z,1.42
2022-08-10T03:25:24.347Z,1.90
2022-08-10T03:27:53.651Z,1.42
2022-08-10T03:30:29.384Z,1.45
2022-08-10T03:33:05.696Z,1.67
2022-08-10T03:35:33.953Z,1.42
2022-08-10T03:38:02.079Z,1.33
2022-08-10T03:40:45.296Z,1.55
2022-08-10T03:43:24.176Z,1.70
2022-08-10T03:45:59.329Z,1.40
2022-08-10T03:48:46.912Z,1.45
2022-08-10T03:51:20.273Z,1.45
2022-08-10T03:54:03.839Z,1.45
2022-08-10T03:56:39.552Z,1.80
2022-08-10T03:59:13.727Z,1.35
2022-08-10T04:02:52.007Z,1.33
2022-08-10T04:04:34.750Z,1.70
2022-08-10T04:07:03.871Z,1.67
2022-08-10T04:09:53.491Z,1.80
2022-08-10T04:12:24.466Z,1.70
2022-08-10T04:14:53.557Z,1.60
2022-08-10T04:18:03.908Z,2.03
2022-08-10T04:20:18.646Z,1.80
2022-08-10T04:22:52.111Z,1.55
2022-08-10T04:25:22.142Z,1.55
2022-08-10T04:27:51.296Z,1.75
2022-08-10T04:30:19.021Z,1.55
2022-08-10T04:32:52.547Z,1.75
2022-08-10T04:35:21.639Z,2.28
2022-08-10T04:37:52.098Z,1.73
2022-08-10T04:40:25.209Z,1.98
2022-08-10T04:43:11.227Z,1.98
2022-08-10T04:45:49.283Z,2.10
2022-08-10T04:48:43.682Z,2.13
2022-08-10T04:51:19.310Z,1.95
2022-08-10T04:54:03.888Z,1.92
2022-08-10T04:56:39.576Z,2.10
2022-08-10T04:59:09.806Z,2.17
2022-08-10T05:02:28.469Z,2.08
2022-08-10T05:04:34.658Z,2.88
2022-08-10T05:07:16.514Z,2.03
2022-08-10T05:10:03.125Z,2.00
2022-08-10T05:12:36.782Z,2.67
2022-08-10T05:15:13.668Z,2.33
2022-08-10T05:18:04.682Z,2.53
2022-08-10T05:20:31.514Z,2.40
2022-08-10T05:22:59.137Z,2.28
2022-08-10T05:25:26.529Z,2.40
2022-08-10T05:27:57.321Z,2.47
2022-08-10T05:30:25.467Z,2.25
2022-08-10T05:32:58.191Z,2.42
2022-08-10T05:35:39.097Z,2.17
2022-08-10T05:38:23.840Z,2.25
2022-08-10T05:40:51.593Z,2.40
2022-08-10T05:43:21.173Z,2.25
2022-08-10T05:46:16.758Z,2.15
2022-08-10T05:48:58.659Z,2.00
2022-08-10T05:51:30.436Z,2.03
2022-08-10T05:54:04.639Z,2.50
2022-08-10T05:56:56.455Z,2.20
2022-08-10T06:02:33.033Z,2.03
2022-08-10T06:05:10.793Z,2.28
2022-08-10T06:07:47.296Z,2.30
2022-08-10T06:10:31.647Z,2.40
2022-08-10T06:13:30.332Z,2.05
2022-08-10T06:16:07.114Z,2.35
2022-08-10T06:18:36.899Z,2.00
2022-08-10T06:21:06.413Z,2.42
2022-08-10T06:23:35.279Z,1.60
2022-08-10T06:26:08.431Z,2.33
2022-08-10T06:28:52.802Z,2.05
2022-08-10T06:31:49.037Z,2.30
2022-08-10T06:34:26.600Z,2.65
2022-08-10T06:36:58.475Z,2.13
2022-08-10T06:39:33.985Z,2.20
2022-08-10T06:42:18.542Z,2.00
2022-08-10T06:45:01.230Z,2.00
2022-08-10T06:47:44.989Z,1.92
2022-08-10T06:50:56.017Z,1.90
2022-08-10T06:53:53.434Z,2.00
2022-08-10T06:56:36.897Z,2.15
2022-08-10T06:59:45.720Z,2.10
2022-08-10T07:02:16.554Z,2.00
2022-08-10T07:04:49.137Z,1.95
2022-08-10T07:07:22.040Z,1.90
2022-08-10T07:09:51.671Z,1.80
2022-08-10T07:12:21.704Z,1.90
2022-08-10T07:14:51.539Z,1.83
2022-08-10T07:17:25.079Z,1.70
2022-08-10T07:20:00.349Z,2.03
2022-08-10T07:23:27.115Z,2.10
2022-08-10T07:25:27.957Z,1.95
2022-08-10T07:28:01.504Z,1.77
2022-08-10T07:30:35.164Z,2.60
2022-08-10T07:33:05.720Z,2.00
2022-08-10T07:35:42.308Z,1.85
2022-08-10T07:38:23.405Z,1.90
2022-08-10T07:40:53.500Z,2.10
2022-08-10T07:43:25.002Z,2.28
2022-08-10T07:45:53.409Z,2.10
2022-08-10T07:48:26.868Z,2.22
2022-08-10T07:51:02.427Z,2.15
2022-08-10T07:53:43.907Z,2.10
2022-08-10T07:56:31.933Z,2.03
2022-08-10T07:59:07.958Z,2.40
2022-08-10T08:01:42.104Z,1.75
2022-08-10T08:04:13.020Z,1.60
2022-08-10T08:09:11.396Z,2.00
2022-08-10T08:11:42.842Z,1.73
2022-08-10T08:14:12.380Z,2.00
2022-08-10T08:16:46.056Z,2.10
2022-08-10T08:19:37.471Z,1.50
2022-08-10T08:24:06.196Z,2.17
2022-08-10T08:24:53.339Z,1.83
2022-08-10T08:27:21.639Z,1.73
2022-08-10T08:29:51.451Z,1.70
2022-08-10T08:32:23.646Z,1.47
2022-08-10T08:34:58.272Z,2.00
2022-08-10T08:38:31.568Z,1.77
2022-08-10T08:40:34.232Z,1.65
2022-08-10T08:43:15.107Z,1.70
2022-08-10T08:46:07.129Z,2.00
2022-08-10T08:49:07.933Z,1.83
2022-08-10T08:52:17.162Z,1.52
2022-08-10T08:56:04.363Z,2.15
2022-08-10T08:58:18.700Z,1.50
2022-08-10T09:01:18.627Z,1.50
2022-08-10T09:04:21.254Z,1.40
2022-08-10T09:08:00.592Z,1.20
2022-08-10T09:10:27.093Z,1.35
2022-08-10T09:13:05.074Z,1.30
2022-08-10T09:16:01.471Z,1.40
2022-08-10T09:18:40.552Z,1.35
2022-08-10T09:21:36.392Z,1.15
2022-08-10T09:24:20.293Z,1.40
2022-08-10T09:26:51.961Z,1.17
2022-08-10T09:29:32.125Z,1.52
2022-08-10T09:35:39.969Z,1.10
2022-08-10T09:36:22.617Z,1.02
2022-08-10T09:38:32.467Z,1.33
2022-08-10T09:41:32.216Z,1.15
2022-08-10T09:44:57.674Z,1.17
2022-08-10T09:47:58.869Z,1.00
2022-08-10T09:51:22.421Z,1.08
2022-08-10T09:53:48.568Z,1.13
2022-08-10T09:56:44.069Z,1.00
2022-08-10T09:59:27.228Z,1.10
2022-08-10T10:02:35.978Z,1.10
2022-08-10T10:05:21.990Z,1.00
2022-08-10T10:08:42.718Z,1.00
2022-08-10T10:11:33.961Z,1.00
2022-08-10T10:15:00.247Z,0.93
2022-08-10T10:18:07.059Z,1.00
2022-08-10T10:21:07.986Z,1.40
2022-08-10T10:24:05.625Z,1.05
2022-08-10T10:26:59.499Z,1.00
2022-08-10T10:29:57.657Z,0.95
2022-08-10T10:32:37.238Z,0.80
2022-08-10T10:35:27.539Z,0.90
2022-08-10T10:38:01.756Z,1.27
2022-08-10T10:40:55.948Z,0.93
2022-08-10T10:43:32.607Z,0.80
2022-08-10T10:46:38.325Z,0.90
2022-08-10T10:49:46.072Z,1.00
2022-08-10T10:52:55.254Z,0.98
2022-08-10T10:56:14.912Z,0.70
2022-08-10T10:59:54.325Z,1.00
2022-08-10T11:02:47.073Z,1.00
2022-08-10T11:05:50.641Z,1.58
2022-08-10T11:08:29.001Z,0.88
2022-08-10T11:12:00.032Z,1.30
2022-08-10T11:14:38.785Z,1.15
2022-08-10T11:17:19.896Z,1.08
2022-08-10T11:20:10.829Z,1.00
2022-08-10T11:23:09.755Z,1.40
2022-08-10T11:25:43.415Z,1.25
2022-08-10T11:28:30.722Z,1.10
2022-08-10T11:31:28.352Z,1.00
2022-08-10T11:34:48.540Z,0.90
2022-08-10T11:37:20.567Z,1.17
2022-08-10T11:39:58.029Z,1.00
2022-08-10T11:42:36.350Z,0.82
2022-08-10T11:45:06.432Z,0.93
2022-08-10T11:47:47.177Z,0.80
2022-08-10T11:50:25.474Z,0.90
2022-08-10T11:53:16.445Z,1.20
2022-08-10T11:55:53.010Z,0.80
2022-08-10T11:58:43.992Z,1.10
2022-08-10T12:01:15.882Z,0.80
2022-08-10T12:03:47.561Z,1.10
2022-08-10T12:06:39.216Z,1.00
2022-08-10T12:10:08.808Z,0.90
2022-08-10T12:11:59.917Z,1.15
2022-08-10T12:15:00.872Z,1.10
2022-08-10T12:17:52.648Z,0.80
2022-08-10T12:20:33.590Z,1.08
2022-08-10T12:23:12.374Z,1.13
2022-08-10T12:26:10.839Z,1.00
2022-08-10T12:28:59.185Z,1.20
2022-08-10T12:32:12.569Z,1.10
2022-08-10T12:35:22.701Z,0.98
2022-08-10T12:38:27.286Z,1.10
2022-08-10T12:41:05.186Z,1.00
2022-08-10T12:44:06.787Z,1.20
2022-08-10T12:46:58.199Z,1.07
2022-08-10T12:50:26.609Z,0.90
2022-08-10T12:53:11.206Z,1.15
2022-08-10T12:55:40.834Z,0.82
2022-08-10T12:58:58.799Z,0.95
2022-08-10T13:01:16.281Z,1.20
2022-08-10T13:04:22.574Z,1.05
2022-08-10T13:06:46.395Z,0.95
2022-08-10T13:09:15.198Z,0.90
2022-08-10T13:12:35.689Z,0.95
2022-08-10T13:15:49.282Z,1.00
2022-08-10T13:18:34.520Z,1.05
2022-08-10T13:21:19.855Z,1.10
2022-08-10T13:24:04.356Z,1.15
2022-08-10T13:27:09.071Z,1.52
2022-08-10T13:29:36.111Z,1.23
2022-08-10T13:32:09.976Z,1.40
2022-08-10T13:34:45.711Z,1.25
2022-08-10T13:37:19.736Z,0.82
2022-08-10T13:39:58.383Z,1.13
2022-08-10T13:42:34.682Z,1.40
2022-08-10T13:45:12.355Z,1.27
2022-08-10T13:47:49.064Z,1.08
2022-08-10T13:50:35.557Z,1.10
2022-08-10T13:53:15.451Z,1.05
2022-08-10T13:55:54.625Z,1.17
2022-08-10T13:58:31.462Z,1.00
2022-08-10T14:01:04.075Z,1.15
2022-08-10T14:03:39.375Z,0.93
2022-08-10T14:06:12.456Z,1.40
2022-08-10T14:08:45.486Z,1.10
2022-08-10T14:11:19.634Z,1.20
2022-08-10T14:13:56.604Z,1.08
2022-08-10T14:16:25.030Z,0.80
2022-08-10T14:18:58.159Z,1.00
2022-08-10T14:21:25.894Z,0.95
2022-08-10T14:23:54.451Z,1.13
2022-08-10T14:26:31.008Z,1.70
2022-08-10T14:29:19.898Z,1.30
2022-08-10T14:32:01.815Z,1.00
2022-08-10T14:36:15.407Z,0.82
2022-08-10T14:37:56.733Z,1.20
2022-08-10T14:40:29.025Z,1.20
2022-08-10T14:43:12.475Z,1.40
2022-08-10T14:45:49.426Z,1.67
2022-08-10T14:48:21.303Z,1.92
2022-08-10T14:50:55.093Z,1.83
2022-08-10T14:53:34.402Z,1.77
2022-08-10T14:56:13.490Z,1.90
2022-08-10T14:58:58.908Z,1.98
2022-08-10T15:01:59.878Z,2.13
2022-08-10T15:04:18.827Z,2.63
2022-08-10T15:07:00.107Z,2.50
2022-08-10T15:10:00.128Z,2.42
2022-08-10T15:12:37.097Z,2.85
2022-08-10T15:15:11.580Z,3.33
2022-08-10T15:17:53.259Z,3.40
2022-08-10T15:20:25.115Z,3.50
2022-08-10T15:23:04.638Z,3.05
2022-08-10T15:25:36.374Z,2.80
2022-08-10T15:28:10.762Z,2.60
2022-08-10T15:30:48.369Z,2.88
2022-08-10T15:34:02.353Z,3.00
2022-08-10T15:37:02.439Z,3.28
2022-08-10T15:40:25.307Z,3.10
2022-08-10T15:43:26.947Z,2.97
2022-08-10T15:46:15.984Z,4.35
2022-08-10T15:48:52.848Z,4.73
2022-08-10T15:51:53.792Z,4.75
2022-08-10T15:54:33.257Z,4.57
2022-08-10T15:57:10.212Z,4.85
2022-08-10T16:00:07.095Z,4.07
2022-08-10T16:03:08.778Z,3.95
2022-08-10T16:06:01.483Z,4.03
2022-08-10T16:08:57.159Z,4.88
2022-08-10T16:11:43.689Z,4.30
2022-08-10T16:14:19.111Z,3.83
2022-08-10T16:16:52.173Z,3.40
2022-08-10T16:19:25.643Z,3.38
2022-08-10T16:22:35.603Z,2.90
2022-08-10T16:24:59.282Z,3.28
2022-08-10T16:27:30.587Z,3.58
2022-08-10T16:30:05.526Z,3.35
2022-08-10T16:32:34.869Z,3.40
2022-08-10T16:35:09.340Z,3.40
2022-08-10T16:37:58.129Z,3.05
2022-08-10T16:40:29.775Z,2.50
2022-08-10T16:43:00.692Z,2.85
2022-08-10T16:45:50.700Z,2.75
2022-08-10T16:48:48.651Z,3.10
2022-08-10T16:51:14.215Z,3.10
2022-08-10T16:53:48.037Z,2.90
2022-08-10T16:56:17.351Z,3.22
2022-08-10T16:58:53.841Z,3.22
2022-08-10T17:01:25.721Z,3.22
2022-08-10T17:04:07.703Z,2.78
2022-08-10T17:06:44.636Z,3.20
2022-08-10T17:09:19.379Z,2.33
2022-08-10T17:11:54.084Z,2.17
2022-08-10T17:14:29.189Z,1.95
2022-08-10T17:17:10.336Z,2.00
2022-08-10T17:19:45.136Z,1.90
2022-08-10T17:22:24.169Z,1.67
2022-08-10T17:24:58.996Z,2.00
2022-08-10T17:28:04.947Z,2.10
2022-08-10T17:30:33.882Z,2.03
2022-08-10T17:33:08.467Z,1.75
2022-08-10T17:35:37.957Z,1.90
2022-08-10T17:38:26.473Z,1.65
2022-08-10T17:41:12.709Z,1.40
2022-08-10T17:43:58.177Z,1.30
2022-08-10T17:46:39.229Z,1.27
2022-08-10T17:49:10.287Z,1.20
2022-08-10T17:51:40.460Z,1.30
2022-08-10T17:54:21.514Z,1.20
2022-08-10T17:56:51.489Z,1.30
2022-08-10T17:59:23.899Z,1.27
2022-08-10T18:02:01.418Z,1.10
2022-08-10T18:04:40.896Z,1.27
2022-08-10T18:07:11.859Z,1.30
2022-08-10T18:09:43.191Z,1.05
2022-08-10T18:12:18.296Z,1.00
2022-08-10T18:14:58.420Z,1.25
2022-08-10T18:17:38.156Z,1.30
2022-08-10T18:20:09.380Z,1.75
2022-08-10T18:22:49.222Z,2.13
2022-08-10T18:25:33.009Z,1.83
2022-08-10T18:28:05.051Z,1.90
2022-08-10T18:30:48.340Z,1.52
2022-08-10T18:33:19.283Z,1.00
2022-08-10T18:38:16.806Z,0.90
2022-08-10T18:40:53.951Z,0.80
2022-08-10T18:44:10.849Z,0.90
2022-08-10T18:46:24.112Z,0.70
2022-08-10T18:49:07.245Z,1.00
2022-08-10T18:51:46.531Z,0.90
2022-08-10T18:54:39.562Z,0.88
2022-08-10T18:57:46.503Z,0.90
2022-08-10T19:00:21.461Z,0.88
2022-08-10T19:03:15.669Z,0.75
2022-08-10T19:06:13.804Z,0.82
2022-08-10T19:08:49.666Z,0.80
2022-08-10T19:11:42.531Z,0.82
2022-08-10T19:14:30.956Z,0.93
2022-08-10T19:18:03.374Z,1.15
2022-08-10T19:20:49.934Z,1.05
2022-08-10T19:23:31.408Z,0.85
2022-08-10T19:26:43.804Z,0.90
2022-08-10T19:30:08.283Z,2.10
2022-08-10T19:32:57.713Z,1.17
2022-08-10T19:36:04.267Z,0.90
2022-08-10T19:38:49.430Z,1.42
2022-08-10T19:41:42.178Z,1.30
2022-08-10T19:44:58.322Z,1.10
2022-08-10T19:47:39.393Z,1.00
2022-08-10T19:50:24.248Z,1.02
2022-08-10T19:53:40.855Z,1.10
2022-08-10T19:56:56.572Z,1.00
2022-08-10T20:00:25.499Z,1.00
2022-08-10T20:03:23.901Z,1.20
2022-08-10T20:06:18.020Z,0.80
2022-08-10T20:09:09.395Z,0.85
2022-08-10T20:11:52.311Z,0.80
2022-08-10T20:14:29.901Z,1.00
2022-08-10T20:17:09.331Z,0.82
2022-08-10T20:19:54.826Z,0.90
2022-08-10T20:22:38.187Z,1.00
2022-08-10T20:25:17.728Z,0.80
2022-08-10T20:28:00.710Z,1.08
2022-08-10T20:30:36.554Z,1.00
2022-08-10T20:33:12.569Z,0.82
2022-08-10T20:36:01.921Z,0.95
2022-08-10T20:38:46.774Z,0.77
2022-08-10T20:41:47.011Z,0.85
2022-08-10T20:44:54.136Z,0.70
2022-08-10T20:47:53.956Z,0.85
2022-08-10T20:50:48.947Z,0.95
2022-08-10T20:53:25.696Z,0.80
2022-08-10T20:56:00.172Z,0.77
2022-08-10T20:58:59.860Z,0.70
2022-08-10T21:02:10.979Z,0.88
2022-08-10T21:05:25.662Z,0.90
2022-08-10T21:08:20.501Z,1.05
2022-08-10T21:11:35.649Z,1.05
2022-08-10T21:14:28.616Z,0.85
2022-08-10T21:17:43.707Z,0.90
2022-08-10T21:20:54.318Z,0.80
2022-08-10T21:23:30.730Z,0.85
2022-08-10T21:26:29.925Z,1.00
2022-08-10T21:29:20.450Z,0.80
2022-08-10T21:32:36.069Z,0.90
2022-08-10T21:35:37.766Z,0.90
2022-08-10T21:38:26.554Z,0.95
2022-08-10T21:41:19.103Z,0.70
2022-08-10T21:44:17.549Z,0.90
2022-08-10T21:47:41.758Z,1.00
2022-08-10T21:50:34.016Z,0.80
2022-08-10T21:53:45.328Z,0.77
2022-08-10T21:56:54.032Z,1.10
2022-08-10T22:03:24.639Z,0.90
2022-08-10T22:06:13.908Z,0.85
2022-08-10T22:09:05.376Z,0.90
2022-08-10T22:12:00.012Z,0.95
2022-08-10T22:14:56.322Z,1.10
2022-08-10T22:18:00.991Z,0.80
2022-08-10T22:20:54.512Z,1.05
2022-08-10T22:24:18.805Z,1.02
2022-08-10T22:27:46.627Z,1.10
2022-08-10T22:30:39.045Z,0.93
2022-08-10T22:33:47.617Z,1.00
2022-08-10T22:37:03.095Z,1.10
2022-08-10T22:40:23.584Z,1.08
2022-08-10T22:43:13.947Z,0.98
2022-08-10T22:46:28.868Z,1.00
2022-08-10T22:49:02.346Z,0.93
2022-08-10T22:51:50.925Z,0.88
2022-08-10T22:54:53.606Z,0.90
2022-08-10T22:57:39.494Z,1.20
2022-08-10T23:00:18.653Z,0.90
2022-08-10T23:02:56.827Z,0.90
2022-08-10T23:05:29.898Z,0.98
2022-08-10T23:08:08.895Z,1.65
2022-08-10T23:10:42.629Z,1.13
2022-08-10T23:13:29.447Z,1.20
2022-08-10T23:16:35.030Z,1.20
2022-08-10T23:19:16.148Z,1.05
2022-08-10T23:22:08.104Z,1.45
2022-08-10T23:24:53.781Z,1.10
2022-08-10T23:27:38.820Z,1.00
2022-08-10T23:30:17.058Z,1.20
2022-08-10T23:32:52.286Z,1.10
2022-08-10T23:36:30.052Z,1.23
2022-08-10T23:38:17.916Z,1.10
2022-08-10T23:40:49.953Z,1.20
2022-08-10T23:43:53.350Z,1.30
2022-08-10T23:46:24.660Z,1.13
2022-08-10T23:48:59.409Z,1.02
2022-08-10T23:51:54.527Z,1.02
2022-08-10T23:54:25.204Z,1.10
2022-08-10T23:57:01.120Z,1.00
2022-08-10T23:59:32.449Z,0.98
